Terminal Aerodrome Forecast
Issued by NWS

Home | Current Version | Previous Version | Text Only | Print | Product List | Glossary On
Versions: 1 2 3 4 5 6 7 8 9 10 11 12 13 14 15 16 17 18
000
FTUS46 KMTR 200500
TAFOAK
TAF
KOAK 200540Z 2006/2112 16005KT P6SM VCSH SCT006 BKN012 OVC015
     FM201200 14004KT P6SM OVC015
     FM201700 11004KT P6SM BKN025 OVC040
     FM201900 16005KT P6SM SCT025 OVC050
     FM202100 20005KT P6SM SCT025 BKN050
     FM210600 20004KT P6SM OVC015=

USA.gov is the U.S. government's official web portal to all federal, state and local government web resources and services.